createdAt,value
2023-01-18T13:07:07.571Z,3065.00
2023-01-18T13:08:07.457Z,3062.00
2023-01-18T13:09:07.344Z,3054.00
2023-01-18T13:10:07.250Z,3051.00
2023-01-18T13:11:07.167Z,3041.00
2023-01-18T13:12:07.102Z,3039.00
2023-01-18T13:13:06.985Z,3041.00
2023-01-18T13:15:06.793Z,3032.00
2023-01-18T13:16:06.713Z,3029.00
2023-01-18T13:17:06.647Z,3034.00
2023-01-18T13:18:06.617Z,3028.00
2023-01-18T13:19:06.606Z,3022.00
2023-01-18T13:20:06.561Z,3022.00
2023-01-18T13:21:06.532Z,3020.00
2023-01-18T13:22:06.508Z,3020.00
2023-01-18T13:23:06.473Z,3014.00
2023-01-18T13:24:06.442Z,3007.00
2023-01-18T13:25:06.422Z,3008.00
2023-01-18T13:26:06.421Z,3002.00
2023-01-18T13:27:06.374Z,2997.00
2023-01-18T13:28:06.352Z,2996.00
2023-01-18T13:29:06.314Z,2993.00
2023-01-18T13:30:06.292Z,2985.00
2023-01-18T13:31:06.405Z,2981.00
2023-01-18T13:32:06.238Z,2979.00
2023-01-18T13:33:06.225Z,2975.00
2023-01-18T13:34:06.198Z,2973.00
2023-01-18T13:35:19.608Z,2968.00
2023-01-18T13:36:07.127Z,2961.00
2023-01-18T13:37:15.062Z,2963.00
2023-01-18T13:38:06.887Z,2960.00
2023-01-18T13:39:05.782Z,2956.00
2023-01-18T13:40:05.696Z,2951.00
2023-01-18T13:41:05.605Z,2950.00
2023-01-18T13:42:05.518Z,2948.00
2023-01-18T14:49:00.220Z,2686.00
2023-01-18T14:50:00.141Z,2679.00
2023-01-18T14:51:00.049Z,2676.00
2023-01-18T14:51:59.979Z,2676.00
2023-01-18T14:53:00.428Z,2671.00
2023-01-18T14:53:59.807Z,2667.00
2023-01-18T14:54:59.728Z,2663.00
2023-01-18T14:55:59.652Z,2663.00
2023-01-18T14:56:59.567Z,2661.00
2023-01-18T14:57:59.497Z,2658.00
2023-01-18T14:58:59.429Z,2655.00
2023-01-18T14:59:59.332Z,2656.00
2023-01-18T15:00:59.348Z,2653.00
2023-01-18T15:01:59.354Z,2646.00
2023-01-18T15:02:59.385Z,2643.00
2023-01-18T15:03:59.019Z,2639.00
2023-01-18T15:04:58.942Z,2640.00
2023-01-18T15:05:58.852Z,2643.00
2023-01-18T15:06:58.767Z,2647.00
2023-01-18T15:07:58.705Z,2644.00
2023-01-18T15:08:58.628Z,2638.00
2023-01-18T15:09:58.548Z,2629.00
2023-01-18T15:10:58.469Z,2634.00
2023-01-18T15:11:58.397Z,2635.00
2023-01-18T15:12:58.759Z,2620.00
2023-01-18T15:13:58.283Z,2544.00
2023-01-18T15:14:58.187Z,2392.00
2023-01-18T15:16:00.975Z,2452.00
2023-01-18T15:16:58.035Z,2445.00
2023-01-18T15:17:58.319Z,2428.00
2023-01-18T15:18:57.835Z,2402.00
2023-01-18T15:19:57.739Z,2325.00
2023-01-18T15:20:57.652Z,2279.00
2023-01-18T15:21:57.540Z,2259.00
2023-01-18T15:22:57.811Z,2245.00
2023-01-18T15:23:57.356Z,2236.00
2023-01-18T15:24:57.254Z,2225.00
2023-01-18T15:25:57.168Z,2216.00
2023-01-18T15:26:57.071Z,2207.00
2023-01-18T15:27:56.986Z,2198.00
2023-01-18T15:28:56.887Z,2189.00
2023-01-18T15:29:56.824Z,2181.00
2023-01-18T15:30:56.714Z,2175.00
2023-01-18T15:31:56.635Z,2171.00
2023-01-18T15:32:56.651Z,2168.00
2023-01-18T15:33:56.421Z,2169.00
2023-01-18T15:34:56.323Z,2163.00
2023-01-18T15:35:56.240Z,2163.00
2023-01-18T15:36:56.138Z,2155.00
2023-01-18T15:37:56.061Z,2158.00
2023-01-18T15:38:55.943Z,2157.00
2023-01-18T15:39:55.854Z,2161.00
2023-01-18T15:40:55.765Z,2162.00
2023-01-18T15:41:55.649Z,2162.00
2023-01-18T15:42:55.558Z,2157.00
2023-01-18T17:32:48.297Z,2020.00
2023-01-18T17:40:47.897Z,2018.00
2023-01-18T17:46:47.662Z,2012.00
2023-01-18T18:06:54.178Z,1993.00
2023-01-18T18:07:47.533Z,1991.00
2023-01-18T18:08:46.429Z,1995.00
2023-01-18T18:09:46.333Z,1996.00
2023-01-18T18:10:46.239Z,1997.00
2023-01-18T18:11:46.145Z,1997.00
2023-01-18T18:12:46.031Z,1996.00
2023-01-18T18:13:45.960Z,1995.00
2023-01-18T18:14:45.852Z,1997.00
2023-01-18T18:15:45.806Z,1997.00
2023-01-18T18:16:45.712Z,1996.00
2023-01-18T18:17:45.585Z,1996.00
2023-01-18T21:36:36.041Z,1805.00
2023-01-18T21:37:35.997Z,1805.00
2023-01-18T21:38:35.955Z,1800.00
2023-01-18T21:39:35.942Z,1796.00
2023-01-18T21:40:35.859Z,1803.00
2023-01-18T21:41:35.813Z,1803.00
2023-01-18T21:42:35.763Z,1802.00
2023-01-18T21:43:35.712Z,1803.00
2023-01-18T21:44:35.680Z,1801.00
2023-01-18T21:45:35.657Z,1799.00
2023-01-18T21:46:35.584Z,1796.00
2023-01-18T21:47:35.546Z,1794.00
2023-01-18T21:48:35.498Z,1794.00
2023-01-18T23:02:33.120Z,1739.00
2023-01-18T23:03:33.131Z,1732.00
2023-01-18T23:04:33.067Z,1731.00
2023-01-18T23:05:33.040Z,1729.00
2023-01-18T23:06:33.016Z,1730.00
2023-01-18T23:07:32.990Z,1729.00
2023-01-18T23:08:32.963Z,1725.00
2023-01-18T23:09:32.936Z,1720.00
2023-01-18T23:10:32.916Z,1719.00
2023-01-18T23:11:32.882Z,1714.00
2023-01-18T23:12:32.851Z,1714.00
2023-01-18T23:13:32.840Z,1713.00
2023-01-18T23:14:32.809Z,1711.00
2023-01-18T23:15:32.818Z,1715.00
2023-01-18T23:16:32.757Z,1716.00
2023-01-18T23:17:32.724Z,1716.00
2023-01-18T23:18:32.740Z,1715.00
2023-01-18T23:19:32.673Z,1714.00
2023-01-18T23:20:32.650Z,1712.00
2023-01-18T23:21:32.628Z,1707.00
2023-01-18T23:22:32.594Z,1706.00
2023-01-18T23:23:32.562Z,1704.00
2023-01-18T23:24:32.521Z,1706.00
2023-01-18T23:25:32.494Z,1706.00
2023-01-18T23:26:32.482Z,1710.00
2023-01-18T23:27:32.453Z,1709.00
2023-01-18T23:28:32.406Z,1704.00
2023-01-18T23:29:32.385Z,1703.00
2023-01-18T23:30:32.382Z,1705.00
2023-01-18T23:31:32.384Z,1702.00
2023-01-18T23:32:32.313Z,1702.00
2023-01-18T23:33:32.289Z,1704.00
2023-01-18T23:34:32.273Z,1703.00
2023-01-18T23:35:32.220Z,1698.00
2023-01-18T23:36:32.209Z,1696.00
2023-01-18T23:37:32.186Z,1697.00
2023-01-18T23:38:32.155Z,1694.00
2023-01-18T23:39:32.206Z,1690.00
2023-01-18T23:40:32.113Z,1688.00
2023-01-18T23:41:32.106Z,1690.00
2023-01-18T23:42:32.077Z,1691.00
2023-01-18T23:43:32.041Z,1689.00
2023-01-18T23:44:32.030Z,1688.00
2023-01-18T23:45:32.009Z,1688.00
2023-01-18T23:46:32.097Z,1692.00
2023-01-18T23:57:31.733Z,1682.00
2023-01-18T23:58:31.713Z,1682.00
2023-01-18T23:59:31.686Z,1682.00
